Time;durP1;ratioP1;P1;durP2;ratioP2;P2;SDS_P1;SDS_P2;PMS_P1;PMS_P2;Temp;Humidity;BMP_temperature;BMP_pressure;BME280_temperature;BME280_humidity;BME280_pressure;Samples;Min_cycle;Max_cycle;Signal;HPM_P1;HPM_P2
2022/04/22 00:00:33;;;;;;;5.82;4.95;;;12.10;80.80;;;;;;5009246;28;20187;-73
2022/04/22 00:02:59;;;;;;;6.22;4.53;;;12.10;82.90;;;;;;5008317;28;20209;-73
2022/04/22 00:05:24;;;;;;;4.93;4.53;;;12.10;81.50;;;;;;5010551;28;20207;-73
2022/04/22 00:07:50;;;;;;;8.02;4.72;;;12.00;80.50;;;;;;5012155;28;20181;-72
2022/04/22 00:10:16;;;;;;;6.22;4.93;;;12.00;80.30;;;;;;5006665;28;20707;-71
2022/04/22 00:12:43;;;;;;;8.02;5.03;;;12.00;81.30;;;;;;5010349;28;20560;-72
2022/04/22 00:15:09;;;;;;;4.63;4.22;;;12.00;82.50;;;;;;5006392;28;20181;-72
2022/04/22 00:17:35;;;;;;;4.75;4.35;;;12.00;82.80;;;;;;5009305;28;20686;-72
2022/04/22 00:20:01;;;;;;;6.50;4.70;;;12.00;82.10;;;;;;5009297;28;20294;-73
2022/04/22 00:22:26;;;;;;;4.93;4.40;;;12.00;83.70;;;;;;5011136;28;20219;-72
2022/04/22 00:24:53;;;;;;;4.82;4.30;;;11.90;84.20;;;;;;5008492;28;20187;-73
2022/04/22 00:27:20;;;;;;;4.60;4.20;;;11.90;86.10;;;;;;5011167;28;20179;-73
2022/04/22 00:29:45;;;;;;;4.90;4.40;;;11.90;85.20;;;;;;5009564;28;20184;-73
2022/04/22 00:32:11;;;;;;;4.50;4.13;;;11.80;85.60;;;;;;5007938;28;20181;-72
2022/04/22 00:34:37;;;;;;;4.38;4.00;;;11.80;87.40;;;;;;5008818;28;20193;-72
2022/04/22 00:37:02;;;;;;;4.35;4.03;;;11.70;87.50;;;;;;5013544;28;20654;-72
2022/04/22 00:39:28;;;;;;;4.07;3.78;;;11.70;88.00;;;;;;5011813;28;20198;-72
2022/04/22 00:41:54;;;;;;;4.50;3.83;;;11.70;86.70;;;;;;5008834;28;20672;-72
2022/04/22 00:44:20;;;;;;;4.38;3.45;;;11.60;86.00;;;;;;5013472;28;20217;-73
2022/04/22 00:46:45;;;;;;;5.72;4.28;;;11.50;85.20;;;;;;5009036;28;20214;-72
2022/04/22 00:49:12;;;;;;;3.65;3.45;;;11.50;86.10;;;;;;5009617;28;20216;-72
2022/04/22 00:51:39;;;;;;;5.25;4.22;;;11.50;85.90;;;;;;5009389;28;20951;-72
2022/04/22 00:54:05;;;;;;;3.92;3.53;;;11.40;85.80;;;;;;5006263;28;20284;-72
2022/04/22 00:56:31;;;;;;;4.20;3.88;;;11.40;85.40;;;;;;5010355;28;20260;-71
2022/04/22 00:58:59;;;;;;;5.40;3.97;;;11.40;86.00;;;;;;5011646;28;20269;-72
2022/04/22 01:01:25;;;;;;;4.38;4.07;;;11.40;84.20;;;;;;5010234;28;20188;-72
2022/04/22 01:12:08;;;;;;;4.07;3.45;;;11.40;83.30;;;;;;5012009;28;20226;-71
2022/04/22 01:14:35;;;;;;;4.10;3.77;;;11.40;84.50;;;;;;5012036;28;20188;-71
2022/04/22 01:17:01;;;;;;;4.53;3.67;;;11.40;83.70;;;;;;5008292;28;20197;-72
2022/04/22 01:19:27;;;;;;;4.83;4.43;;;11.40;87.40;;;;;;5008235;28;20172;-72
2022/04/22 01:21:53;;;;;;;4.05;3.75;;;11.40;87.00;;;;;;5006727;28;20188;-73
2022/04/22 01:24:18;;;;;;;3.97;3.65;;;11.30;86.20;;;;;;5007663;28;20277;-72
2022/04/22 01:26:46;;;;;;;7.63;3.85;;;11.30;87.70;;;;;;5011069;28;20191;-72
2022/04/22 01:29:14;;;;;;;4.13;3.92;;;11.20;87.90;;;;;;5015631;28;20196;-72
2022/04/22 01:31:41;;;;;;;5.30;3.63;;;11.10;87.90;;;;;;5015583;28;20574;-71
2022/04/22 01:34:07;;;;;;;4.30;3.97;;;11.10;88.30;;;;;;5015123;28;20890;-72
2022/04/22 01:36:33;;;;;;;5.55;4.00;;;11.10;87.70;;;;;;5014110;28;20186;-72
2022/04/22 01:38:58;;;;;;;8.07;4.45;;;11.10;88.20;;;;;;5017257;28;20191;-72
2022/04/22 01:41:24;;;;;;;4.45;4.03;;;11.10;87.30;;;;;;5018779;28;20702;-72
2022/04/22 01:43:50;;;;;;;3.85;3.65;;;11.10;85.70;;;;;;5016808;28;20212;-72
2022/04/22 01:46:16;;;;;;;4.88;3.80;;;11.10;84.90;;;;;;5016341;28;20184;-72
2022/04/22 01:48:42;;;;;;;3.72;3.42;;;11.10;84.40;;;;;;5017826;28;20179;-72
2022/04/22 01:51:08;;;;;;;3.47;3.28;;;11.10;85.30;;;;;;5016225;28;20357;-72
2022/04/22 01:53:34;;;;;;;4.07;3.70;;;11.10;84.60;;;;;;5013631;28;20195;-72
2022/04/22 01:55:59;;;;;;;4.50;4.10;;;11.10;85.10;;;;;;5011250;28;20682;-72
2022/04/22 01:58:25;;;;;;;7.05;3.88;;;11.10;86.90;;;;;;5012456;28;20192;-72
2022/04/22 02:00:51;;;;;;;3.42;3.22;;;11.10;84.50;;;;;;5015822;28;20184;-72
2022/04/22 02:03:16;;;;;;;3.83;3.43;;;11.10;84.10;;;;;;5016324;28;20204;-72
2022/04/22 02:05:42;;;;;;;3.45;3.25;;;11.10;84.50;;;;;;5015742;28;20200;-72
2022/04/22 02:08:12;;;;;;;2.60;2.50;;;11.10;86.80;;;;;;5016152;28;20181;-72
2022/04/22 02:10:38;;;;;;;3.53;3.30;;;11.20;88.20;;;;;;5016629;28;20944;-72
2022/04/22 02:13:05;;;;;;;3.55;3.28;;;11.10;88.90;;;;;;5016904;28;20226;-72
2022/04/22 02:15:31;;;;;;;3.60;3.17;;;11.20;88.60;;;;;;4997447;28;20236;-72
2022/04/22 02:17:56;;;;;;;5.78;3.80;;;11.10;88.50;;;;;;5013056;28;20212;-72
2022/04/22 02:20:22;;;;;;;3.90;3.60;;;11.10;88.90;;;;;;5015071;28;20177;-72
2022/04/22 02:22:48;;;;;;;4.23;3.60;;;11.10;88.60;;;;;;5016060;28;20220;-72
2022/04/22 02:25:14;;;;;;;3.37;3.27;;;11.00;88.40;;;;;;5013689;28;20626;-72
2022/04/22 02:30:25;;;;;;;3.33;3.08;;;10.90;86.60;;;;;;5018310;28;20186;-72
2022/04/22 02:32:52;;;;;;;3.67;3.38;;;10.90;86.10;;;;;;5012456;28;20215;-72
2022/04/22 02:35:21;;;;;;;3.50;3.25;;;10.90;85.70;;;;;;5016829;28;20573;-72
2022/04/22 02:37:47;;;;;;;3.97;3.55;;;10.90;86.10;;;;;;5014005;28;20184;-72
2022/04/22 02:45:51;;;;;;;3.95;3.40;;;10.90;86.30;;;;;;5009614;28;20191;-72
2022/04/22 02:48:18;;;;;;;4.57;3.83;;;10.90;85.20;;;;;;5009660;28;20197;-71
2022/04/22 02:50:45;;;;;;;6.57;3.92;;;10.90;85.90;;;;;;5008957;28;20184;-72
2022/04/22 02:53:10;;;;;;;5.13;4.57;;;10.90;86.30;;;;;;5006689;28;20193;-72
2022/04/22 02:55:41;;;;;;;4.35;3.97;;;10.90;86.30;;;;;;5010812;28;20629;-73
2022/04/22 02:58:07;;;;;;;4.38;3.92;;;10.80;85.10;;;;;;5008666;28;20188;-71
2022/04/22 03:00:32;;;;;;;3.47;3.28;;;10.90;86.20;;;;;;4992846;28;20188;-71
2022/04/22 03:02:58;;;;;;;5.77;3.93;;;10.80;86.40;;;;;;5010471;28;20212;-71
2022/04/22 03:05:24;;;;;;;4.00;3.70;;;10.90;86.60;;;;;;5007370;28;20199;-71
2022/04/22 03:07:49;;;;;;;4.97;3.92;;;10.90;86.80;;;;;;5009879;28;20259;-71
2022/04/22 03:10:17;;;;;;;4.53;4.23;;;10.90;88.40;;;;;;5009646;28;20246;-72
2022/04/22 03:12:43;;;;;;;3.57;3.40;;;10.90;88.20;;;;;;4992821;28;20200;-73
2022/04/22 03:15:09;;;;;;;5.43;3.90;;;10.90;88.80;;;;;;5007275;28;20218;-73
2022/04/22 03:17:35;;;;;;;3.60;3.38;;;10.80;87.30;;;;;;5011561;28;20689;-73
2022/04/22 03:20:00;;;;;;;4.82;4.43;;;10.80;87.80;;;;;;5006386;28;20204;-73
2022/04/22 03:22:26;;;;;;;3.90;3.60;;;10.80;86.70;;;;;;5010316;28;20312;-73
2022/04/22 03:24:52;;;;;;;6.90;3.22;;;10.80;86.30;;;;;;5010699;28;20272;-73
2022/04/22 03:27:18;;;;;;;3.83;3.43;;;10.80;86.30;;;;;;5012132;28;20181;-73
2022/04/22 03:29:43;;;;;;;3.97;3.63;;;10.80;86.60;;;;;;5012776;28;20196;-73
2022/04/22 03:32:12;;;;;;;3.78;3.47;;;10.80;87.80;;;;;;5013529;28;20268;-73
2022/04/22 03:34:38;;;;;;;3.20;3.00;;;10.80;87.90;;;;;;5006921;28;20191;-72
2022/04/22 03:37:04;;;;;;;3.05;2.85;;;10.90;88.00;;;;;;5008935;28;20189;-72
2022/04/22 03:39:29;;;;;;;4.30;3.03;;;10.90;87.30;;;;;;5011438;28;20207;-72
2022/04/22 03:41:55;;;;;;;3.50;3.20;;;10.90;86.90;;;;;;5016732;28;20185;-72
2022/04/22 03:44:21;;;;;;;3.33;3.13;;;10.90;88.00;;;;;;5014087;28;20267;-73
2022/04/22 03:46:46;;;;;;;3.63;2.95;;;10.90;88.30;;;;;;5013143;28;20643;-72
2022/04/22 03:49:12;;;;;;;3.40;3.20;;;10.90;88.30;;;;;;5007036;28;20212;-73
2022/04/22 03:51:38;;;;;;;2.90;2.70;;;10.90;89.30;;;;;;5008047;28;21101;-73
2022/04/22 03:54:04;;;;;;;3.22;2.38;;;10.90;89.00;;;;;;5011864;28;20978;-72
2022/04/22 03:59:14;;;;;;;3.63;3.33;;;10.90;88.90;;;;;;5012500;28;20207;-72
2022/04/22 04:01:39;;;;;;;2.47;2.30;;;11.00;88.10;;;;;;5015294;28;20192;-72
2022/04/22 04:04:05;;;;;;;4.70;2.88;;;10.90;88.10;;;;;;5010825;28;20220;-72
2022/04/22 04:06:31;;;;;;;3.00;2.38;;;10.90;88.70;;;;;;5009804;28;20196;-72
2022/04/22 04:17:14;;;;;;;3.92;2.80;;;10.80;89.10;;;;;;5007990;28;21120;-72
2022/04/22 04:25:09;;;;;;;2.63;2.50;;;10.80;89.80;;;;;;5012840;28;20218;-72
2022/04/22 04:27:36;;;;;;;5.30;2.80;;;10.80;89.40;;;;;;5013729;28;20188;-73
2022/04/22 04:30:03;;;;;;;4.93;2.97;;;10.80;89.20;;;;;;5011241;28;20212;-73
2022/04/22 04:32:29;;;;;;;3.55;2.92;;;10.80;89.00;;;;;;5008770;28;20262;-72
2022/04/22 04:34:54;;;;;;;3.43;3.07;;;10.80;89.10;;;;;;5010818;28;20883;-73
2022/04/22 04:37:21;;;;;;;2.83;2.33;;;10.80;89.00;;;;;;5009080;28;20295;-73
2022/04/22 04:39:47;;;;;;;3.03;2.83;;;10.80;88.90;;;;;;5010241;28;21154;-72
2022/04/22 04:42:12;;;;;;;3.05;2.72;;;10.70;88.60;;;;;;5010643;28;20177;-73
2022/04/22 04:44:38;;;;;;;2.42;2.20;;;10.70;88.20;;;;;;5013889;28;20216;-72
2022/04/22 04:47:04;;;;;;;2.85;2.65;;;10.70;89.30;;;;;;5007745;28;20180;-72
2022/04/22 04:49:30;;;;;;;2.80;2.70;;;10.70;89.30;;;;;;5012757;28;20188;-72
2022/04/22 04:51:57;;;;;;;4.28;3.55;;;10.80;90.80;;;;;;5012398;28;20952;-73
2022/04/22 04:54:23;;;;;;;2.97;2.88;;;10.70;89.70;;;;;;5005048;28;20188;-72
2022/04/22 04:56:50;;;;;;;3.13;2.90;;;10.80;89.70;;;;;;5007103;28;20722;-72
2022/04/22 04:59:16;;;;;;;4.20;3.13;;;10.70;88.70;;;;;;5009967;28;20185;-72
2022/04/22 05:01:42;;;;;;;4.53;3.00;;;10.80;90.00;;;;;;5007782;28;20192;-71
2022/04/22 05:04:08;;;;;;;2.78;2.60;;;10.80;89.50;;;;;;5009622;28;20314;-71
2022/04/22 05:06:35;;;;;;;3.00;2.70;;;10.80;89.00;;;;;;5009930;28;20714;-73
2022/04/22 05:09:00;;;;;;;3.92;3.75;;;10.90;88.60;;;;;;5011993;28;20192;-72
2022/04/22 05:11:26;;;;;;;8.32;3.65;;;10.90;90.90;;;;;;5010149;28;20198;-72
2022/04/22 05:13:52;;;;;;;8.23;3.92;;;10.90;90.10;;;;;;5012064;28;20822;-72
2022/04/22 05:16:19;;;;;;;3.50;3.25;;;11.00;90.80;;;;;;5006256;28;20215;-72
2022/04/22 05:18:44;;;;;;;4.15;3.75;;;10.90;90.40;;;;;;5006890;28;20181;-72
2022/04/22 05:21:10;;;;;;;3.40;3.10;;;10.90;90.00;;;;;;5004835;28;20188;-71
2022/04/22 05:23:36;;;;;;;6.28;3.58;;;11.00;90.30;;;;;;5008843;28;20219;-71
2022/04/22 05:26:02;;;;;;;3.38;3.08;;;10.90;90.30;;;;;;5007918;28;20189;-71
2022/04/22 05:28:28;;;;;;;3.42;3.13;;;10.90;89.90;;;;;;5011481;28;20270;-71
2022/04/22 05:33:39;;;;;;;4.10;3.80;;;11.00;90.50;;;;;;5009089;28;20227;-72
2022/04/22 05:36:06;;;;;;;3.10;2.80;;;11.00;90.30;;;;;;5009376;28;20180;-72
2022/04/22 05:38:34;;;;;;;3.55;3.35;;;10.90;90.10;;;;;;5007883;28;20255;-71
2022/04/22 05:41:00;;;;;;;5.70;3.72;;;11.00;90.30;;;;;;5005973;28;20211;-71
2022/04/22 05:43:26;;;;;;;3.47;3.20;;;11.00;90.20;;;;;;5012202;28;20213;-71
2022/04/22 05:45:51;;;;;;;3.05;2.85;;;11.00;90.20;;;;;;5007261;28;20213;-73
2022/04/22 05:48:17;;;;;;;4.00;3.28;;;11.00;89.90;;;;;;5009554;28;20717;-72
2022/04/22 05:50:43;;;;;;;3.28;3.05;;;11.00;89.90;;;;;;5008723;28;20368;-72
2022/04/22 05:53:09;;;;;;;3.47;3.15;;;11.00;90.00;;;;;;5009734;28;20212;-72
2022/04/22 05:55:34;;;;;;;4.68;3.58;;;11.10;89.70;;;;;;5012821;28;20195;-72
2022/04/22 05:58:02;;;;;;;3.55;3.33;;;11.10;89.80;;;;;;5006130;28;20177;-72
2022/04/22 06:00:32;;;;;;;3.20;3.00;;;11.20;89.80;;;;;;5027152;28;20590;-72
2022/04/22 06:02:59;;;;;;;4.65;3.22;;;11.20;89.40;;;;;;5012980;28;20247;-71
2022/04/22 06:05:26;;;;;;;3.80;3.50;;;11.30;89.90;;;;;;5007389;28;20189;-72
2022/04/22 06:10:37;;;;;;;3.03;2.83;;;11.40;89.00;;;;;;5005875;28;20239;-72
2022/04/22 06:13:04;;;;;;;3.20;3.00;;;11.30;88.60;;;;;;5010172;28;20193;-74
2022/04/22 06:15:30;;;;;;;3.10;2.90;;;11.40;88.80;;;;;;5011875;28;20776;-74
2022/04/22 06:17:57;;;;;;;6.45;3.42;;;11.50;88.80;;;;;;5013244;28;20188;-74
2022/04/22 06:20:23;;;;;;;3.30;3.10;;;11.50;88.40;;;;;;5013742;28;20271;-73
2022/04/22 06:22:49;;;;;;;3.20;3.00;;;11.50;88.30;;;;;;5013271;28;20242;-75
2022/04/22 06:25:15;;;;;;;3.50;2.92;;;11.60;88.30;;;;;;5015656;28;20291;-75
2022/04/22 06:27:42;;;;;;;3.38;3.17;;;11.60;88.10;;;;;;5010817;28;20249;-74
2022/04/22 06:30:13;;;;;;;3.30;3.10;;;11.70;88.10;;;;;;5010617;28;20185;-75
2022/04/22 06:32:41;;;;;;;3.90;3.15;;;11.70;87.50;;;;;;5013313;28;20699;-75
2022/04/22 06:35:08;;;;;;;4.43;3.13;;;11.80;87.70;;;;;;5012560;28;20185;-74
2022/04/22 06:37:43;;;;;;;3.03;2.92;;;11.90;87.60;;;;;;5016481;28;20211;-74
2022/04/22 06:45:47;;;;;;;2.70;2.60;;;11.80;85.90;;;;;;5009217;28;20188;-76
2022/04/22 06:48:14;;;;;;;2.60;2.50;;;11.80;84.90;;;;;;5009294;28;20208;-76
2022/04/22 06:50:41;;;;;;;2.78;2.67;;;11.80;84.60;;;;;;5010167;28;20185;-76
2022/04/22 06:53:08;;;;;;;2.67;2.45;;;11.80;84.90;;;;;;5014086;28;20242;-74
2022/04/22 06:55:34;;;;;;;2.15;2.10;;;11.90;84.80;;;;;;5011727;28;20196;-75
2022/04/22 06:58:01;;;;;;;2.75;2.40;;;11.90;85.10;;;;;;5010566;28;20189;-75
2022/04/22 07:00:27;;;;;;;3.35;2.72;;;12.00;85.80;;;;;;5007837;28;20181;-74
2022/04/22 07:02:53;;;;;;;2.97;2.33;;;12.10;85.20;;;;;;5014984;28;20288;-74
2022/04/22 07:05:19;;;;;;;2.95;2.63;;;12.20;84.90;;;;;;5010614;28;20189;-72
2022/04/22 07:07:45;;;;;;;2.95;2.70;;;12.30;84.70;;;;;;5009470;28;20603;-73
2022/04/22 07:10:12;;;;;;;2.78;2.55;;;12.40;84.30;;;;;;5012223;28;20192;-73
2022/04/22 07:12:40;;;;;;;3.88;2.45;;;12.50;84.20;;;;;;5012193;28;20191;-74
2022/04/22 07:15:07;;;;;;;3.63;1.73;;;12.60;84.50;;;;;;5010126;28;20300;-74
2022/04/22 07:17:34;;;;;;;3.00;2.38;;;12.70;84.40;;;;;;5014707;28;20271;-72
2022/04/22 07:20:09;;;;;;;2.55;2.45;;;12.80;83.90;;;;;;5008992;28;20192;-74
2022/04/22 07:22:38;;;;;;;2.47;2.28;;;13.00;83.30;;;;;;5011509;28;20211;-74
2022/04/22 07:25:06;;;;;;;2.25;2.15;;;13.00;83.20;;;;;;5024725;28;20190;-74
2022/04/22 07:27:35;;;;;;;2.97;2.33;;;12.90;82.50;;;;;;5010481;28;20177;-73
2022/04/22 07:30:02;;;;;;;3.10;2.05;;;13.10;82.90;;;;;;5020990;28;20188;-74
2022/04/22 07:32:28;;;;;;;2.10;2.00;;;13.10;82.60;;;;;;5008875;28;20272;-75
2022/04/22 07:34:54;;;;;;;4.63;2.25;;;13.20;81.80;;;;;;5008993;28;20295;-73
2022/04/22 07:37:21;;;;;;;2.20;2.10;;;13.20;81.40;;;;;;5009249;28;20192;-74
2022/04/22 07:39:47;;;;;;;2.30;2.10;;;13.30;82.10;;;;;;5000210;28;20177;-74
2022/04/22 07:42:18;;;;;;;2.50;1.92;;;13.30;81.10;;;;;;5006620;28;20215;-74
2022/04/22 07:47:38;;;;;;;7.00;1.75;;;13.60;80.90;;;;;;5008854;28;20195;-75
2022/04/22 07:50:05;;;;;;;2.03;1.83;;;13.80;81.00;;;;;;5007839;28;20181;-73
2022/04/22 07:52:36;;;;;;;1.60;1.58;;;13.90;80.20;;;;;;5003064;28;20291;-73
2022/04/22 07:55:03;;;;;;;1.88;1.80;;;14.00;79.80;;;;;;5006632;28;20177;-73
2022/04/22 07:57:29;;;;;;;2.60;2.50;;;14.10;79.60;;;;;;5008394;28;20725;-73
2022/04/22 08:00:04;;;;;;;2.72;2.10;;;14.20;78.70;;;;;;5006403;28;20271;-74
2022/04/22 08:02:30;;;;;;;2.17;2.08;;;14.30;79.70;;;;;;5006205;28;20182;-76
2022/04/22 08:04:56;;;;;;;2.58;2.38;;;14.40;80.30;;;;;;5008373;28;20678;-75
2022/04/22 08:07:21;;;;;;;2.33;2.22;;;14.70;80.00;;;;;;5001919;28;20271;-74
2022/04/22 08:09:47;;;;;;;2.67;2.47;;;14.70;79.60;;;;;;5001926;28;20184;-76
2022/04/22 08:12:14;;;;;;;2.17;2.05;;;14.90;79.60;;;;;;5013861;28;20176;-74
2022/04/22 08:14:41;;;;;;;2.50;2.30;;;15.00;79.20;;;;;;5008864;28;20684;-75
2022/04/22 08:17:07;;;;;;;2.17;1.95;;;15.30;79.00;;;;;;5004932;28;20227;-75
2022/04/22 08:19:33;;;;;;;2.08;1.95;;;15.30;78.60;;;;;;5003099;28;20189;-75
2022/04/22 08:21:59;;;;;;;2.42;2.22;;;15.40;78.80;;;;;;5004143;28;20220;-74
2022/04/22 08:24:26;;;;;;;2.10;2.00;;;15.60;78.30;;;;;;5010054;28;20774;-74
2022/04/22 08:26:52;;;;;;;2.40;2.30;;;15.80;77.90;;;;;;5005728;28;20217;-74
2022/04/22 08:29:18;;;;;;;3.22;2.40;;;15.90;77.90;;;;;;5003490;28;20275;-75
2022/04/22 08:31:45;;;;;;;1.88;1.77;;;16.10;76.80;;;;;;5002330;28;20753;-74
2022/04/22 08:34:11;;;;;;;1.88;1.77;;;16.30;77.50;;;;;;5001890;28;21007;-73
2022/04/22 08:36:37;;;;;;;2.13;2.13;;;16.40;77.70;;;;;;5002677;28;20224;-73
2022/04/22 08:39:04;;;;;;;2.05;1.95;;;16.60;76.70;;;;;;5003317;28;20260;-73
2022/04/22 08:41:35;;;;;;;3.33;2.08;;;16.80;75.80;;;;;;5005825;28;20181;-71
2022/04/22 08:44:01;;;;;;;3.72;1.90;;;17.00;75.80;;;;;;5004215;28;20216;-75
2022/04/22 08:52:00;;;;;;;1.98;1.77;;;17.50;74.80;;;;;;5004736;28;20183;-73
2022/04/22 08:54:27;;;;;;;2.05;1.50;;;17.60;73.50;;;;;;5007590;28;20276;-73
2022/04/22 08:56:55;;;;;;;2.30;2.10;;;17.70;72.30;;;;;;5009372;28;20185;-73
2022/04/22 08:59:21;;;;;;;3.63;2.58;;;17.90;72.80;;;;;;5005572;28;20189;-74
2022/04/22 09:01:48;;;;;;;1.80;1.70;;;18.00;72.30;;;;;;5006887;28;20189;-74
2022/04/22 09:04:14;;;;;;;3.10;2.30;;;18.20;72.70;;;;;;5008065;28;20215;-74
2022/04/22 09:06:40;;;;;;;4.45;2.08;;;18.50;71.50;;;;;;5005746;28;20628;-73
2022/04/22 09:09:06;;;;;;;1.90;1.75;;;18.70;72.30;;;;;;5007371;28;20639;-73
2022/04/22 09:11:37;;;;;;;1.40;1.40;;;18.90;71.00;;;;;;5006997;28;20271;-74
2022/04/22 09:14:04;;;;;;;1.73;1.63;;;19.20;71.50;;;;;;5007831;28;20184;-74
2022/04/22 09:16:30;;;;;;;1.63;1.52;;;19.50;70.70;;;;;;5005623;28;20207;-74
2022/04/22 09:19:01;;;;;;;3.22;1.67;;;19.80;69.20;;;;;;5010403;28;20188;-74
2022/04/22 09:21:27;;;;;;;3.15;1.77;;;19.90;66.60;;;;;;5009307;28;20212;-74
2022/04/22 09:23:55;;;;;;;7.72;1.70;;;20.10;67.90;;;;;;5006779;28;20220;-75
2022/04/22 09:26:26;;;;;;;2.78;2.67;;;20.30;68.50;;;;;;5010751;28;20678;-76
2022/04/22 09:28:59;;;;;;;1.70;1.67;;;20.70;66.60;;;;;;5010667;28;20180;-75
2022/04/22 09:31:27;;;;;;;4.05;2.45;;;21.00;67.40;;;;;;5007814;28;20199;-76
2022/04/22 09:33:53;;;;;;;3.15;1.88;;;21.20;66.50;;;;;;5006546;28;20192;-74
2022/04/22 09:44:58;;;;;;;4.53;1.73;;;23.30;62.30;;;;;;5008027;28;21016;-74
2022/04/22 09:47:30;;;;;;;1.95;1.80;;;23.80;63.20;;;;;;5005102;28;20195;-75
2022/04/22 09:49:56;;;;;;;1.98;1.85;;;24.30;62.50;;;;;;5010445;28;20604;-74
2022/04/22 09:52:46;;;;;;;1.92;1.90;;;24.70;62.20;;;;;;5011260;28;20475;-76
2022/04/22 09:55:15;;;;;;;2.50;2.30;;;25.30;59.70;;;;;;5011972;28;20184;-75
2022/04/22 09:57:55;;;;;;;2.15;2.05;;;25.80;60.30;;;;;;5011413;28;20193;-75
2022/04/22 10:00:30;;;;;;;5.35;2.45;;;26.30;60.30;;;;;;5014259;28;20180;-75
2022/04/22 10:02:56;;;;;;;2.08;1.98;;;26.60;58.80;;;;;;5014658;28;20227;-76
2022/04/22 10:05:31;;;;;;;1.90;1.90;;;26.80;59.40;;;;;;5016610;28;21038;-74
2022/04/22 10:08:00;;;;;;;2.08;1.98;;;27.20;58.60;;;;;;5011282;28;20191;-73
2022/04/22 10:10:35;;;;;;;2.60;2.50;;;27.60;57.20;;;;;;5010597;28;20208;-74
2022/04/22 10:13:03;;;;;;;1.90;1.80;;;27.90;57.50;;;;;;5006511;28;20211;-74
2022/04/22 10:15:35;;;;;;;2.30;2.10;;;28.20;56.20;;;;;;5012861;28;20180;-74
2022/04/22 10:18:02;;;;;;;1.92;1.90;;;28.60;55.40;;;;;;5005527;28;20191;-75
2022/04/22 10:20:29;;;;;;;3.72;2.15;;;28.90;56.30;;;;;;5014768;28;20822;-74
2022/04/22 10:22:57;;;;;;;2.28;2.13;;;29.30;56.20;;;;;;5012006;28;20707;-75
2022/04/22 10:25:24;;;;;;;1.75;1.65;;;29.50;56.00;;;;;;5005714;28;20220;-74
2022/04/22 10:27:52;;;;;;;5.38;1.95;;;29.80;54.40;;;;;;5010132;28;20205;-75
2022/04/22 10:30:19;;;;;;;1.73;1.73;;;30.20;53.90;;;;;;5004166;28;20178;-74
2022/04/22 10:32:48;;;;;;;3.25;2.30;;;30.80;51.30;;;;;;5006623;28;20861;-74
2022/04/22 10:35:14;;;;;;;3.17;1.77;;;30.80;51.40;;;;;;5007605;28;20193;-74
2022/04/22 10:37:41;;;;;;;2.20;2.00;;;30.60;51.10;;;;;;5005474;28;20173;-75
2022/04/22 10:40:28;;;;;;;1.63;1.63;;;30.50;52.60;;;;;;5004843;28;20199;-75
2022/04/22 10:42:58;;;;;;;2.22;2.03;;;30.10;49.00;;;;;;5009149;28;20616;-74
2022/04/22 10:48:21;;;;;;;1.65;1.55;;;29.20;51.20;;;;;;5003111;28;20196;-75
2022/04/22 10:51:00;;;;;;;1.77;1.67;;;28.80;50.50;;;;;;5009435;28;20267;-75
2022/04/22 10:53:43;;;;;;;1.67;1.58;;;28.60;53.00;;;;;;5010858;28;20901;-74
2022/04/22 10:56:30;;;;;;;1.88;1.75;;;28.70;51.00;;;;;;5004174;28;20196;-74
2022/04/22 10:59:21;;;;;;;3.35;1.80;;;28.60;52.70;;;;;;5011733;28;20196;-76
2022/04/22 11:01:47;;;;;;;2.78;1.85;;;28.90;53.60;;;;;;5007688;28;20201;-74
2022/04/22 11:04:26;;;;;;;5.00;2.13;;;29.50;53.00;;;;;;5009184;28;20219;-75
2022/04/22 11:06:52;;;;;;;5.03;1.80;;;30.00;53.20;;;;;;5007470;28;20266;-75
2022/04/22 11:09:26;;;;;;;1.70;1.60;;;30.60;51.80;;;;;;5010611;28;20203;-75
2022/04/22 11:11:53;;;;;;;1.73;1.63;;;30.90;49.60;;;;;;5008005;28;20181;-75
2022/04/22 11:14:21;;;;;;;1.77;1.77;;;30.90;51.50;;;;;;5008001;28;20205;-75
2022/04/22 11:16:48;;;;;;;2.15;2.05;;;30.80;51.10;;;;;;5006604;28;20549;-75
2022/04/22 11:19:19;;;;;;;2.38;1.45;;;30.80;51.20;;;;;;5010745;28;20192;-75
2022/04/22 11:21:52;;;;;;;2.05;1.67;;;30.70;51.70;;;;;;5008041;28;20180;-75
2022/04/22 11:24:24;;;;;;;2.70;1.83;;;30.80;51.60;;;;;;5008633;28;20235;-75
2022/04/22 11:26:52;;;;;;;1.85;1.75;;;30.90;52.60;;;;;;5008783;28;20181;-75
2022/04/22 11:29:19;;;;;;;3.42;1.83;;;30.80;50.20;;;;;;5009937;28;20188;-75
2022/04/22 11:32:21;;;;;;;4.70;1.90;;;30.50;49.70;;;;;;5007429;28;20205;-75
2022/04/22 11:35:04;;;;;;;2.33;2.20;;;30.20;51.20;;;;;;5006308;28;20184;-74
2022/04/22 11:37:30;;;;;;;3.65;2.40;;;29.90;50.80;;;;;;5005940;28;20184;-75
2022/04/22 11:39:56;;;;;;;2.55;2.15;;;29.40;49.20;;;;;;5008977;28;20212;-75
2022/04/22 11:42:22;;;;;;;2.53;2.22;;;29.20;52.90;;;;;;5004489;28;20679;-75
2022/04/22 11:45:01;;;;;;;1.73;1.67;;;29.20;51.80;;;;;;5007614;28;20220;-75
2022/04/22 11:47:28;;;;;;;2.95;1.77;;;29.20;50.20;;;;;;5003939;28;20180;-75
2022/04/22 11:49:55;;;;;;;3.72;1.67;;;28.90;49.60;;;;;;5005486;28;20188;-74
2022/04/22 11:52:22;;;;;;;3.70;1.60;;;28.60;51.30;;;;;;5009264;28;20189;-74
2022/04/22 11:54:49;;;;;;;1.65;1.55;;;28.90;52.00;;;;;;5007791;28;20217;-74
2022/04/22 11:57:17;;;;;;;1.60;1.60;;;28.80;52.10;;;;;;5008524;28;20663;-75
2022/04/22 12:05:32;;;;;;;5.03;1.52;;;;;;;;;;5007760;28;20176;-75
2022/04/22 12:05:32;;;;;;;2.67;2.05;;;29.90;50.80;;;;;;5008487;28;20349;-75
2022/04/22 12:08:07;;;;;;;1.45;1.45;;;30.50;51.00;;;;;;5005660;28;20212;-73
2022/04/22 12:10:34;;;;;;;1.52;1.52;;;30.80;50.90;;;;;;5006885;28;20188;-76
2022/04/22 12:13:02;;;;;;;1.48;1.48;;;31.30;49.70;;;;;;5009216;28;20674;-76
2022/04/22 12:15:28;;;;;;;4.47;1.63;;;31.80;49.00;;;;;;5010063;28;20192;-76
2022/04/22 12:17:54;;;;;;;1.95;1.85;;;32.20;48.30;;;;;;5008817;28;20188;-75
2022/04/22 12:20:20;;;;;;;2.72;1.45;;;32.20;46.60;;;;;;5009138;28;20195;-76
2022/04/22 12:22:49;;;;;;;1.90;1.80;;;32.50;46.70;;;;;;5008697;28;20891;-75
2022/04/22 12:25:19;;;;;;;3.95;1.98;;;32.90;46.30;;;;;;5005164;28;20243;-75
2022/04/22 12:28:06;;;;;;;2.40;2.00;;;33.20;45.90;;;;;;5009643;28;20177;-73
2022/04/22 12:30:37;;;;;;;3.05;1.67;;;33.70;46.60;;;;;;5005234;28;20215;-75
2022/04/22 12:33:04;;;;;;;1.60;1.60;;;34.00;45.90;;;;;;5007472;28;20711;-75
2022/04/22 12:35:30;;;;;;;1.98;1.88;;;34.20;45.70;;;;;;5005834;28;20271;-73
2022/04/22 12:37:56;;;;;;;1.70;1.60;;;34.50;45.00;;;;;;5005833;28;21421;-73
2022/04/22 12:40:23;;;;;;;3.45;2.15;;;34.50;45.40;;;;;;5006155;28;20182;-75
2022/04/22 12:42:51;;;;;;;1.98;1.80;;;34.00;45.50;;;;;;5010988;28;20172;-74
2022/04/22 12:53:48;;;;;;;3.13;2.10;;;31.60;47.20;;;;;;5007534;28;20199;-74
2022/04/22 12:56:14;;;;;;;3.50;1.90;;;31.60;47.50;;;;;;5009483;28;20189;-74
2022/04/22 12:59:00;;;;;;;3.15;1.73;;;31.80;47.90;;;;;;5003695;28;20184;-73
2022/04/22 13:01:32;;;;;;;2.80;1.73;;;32.10;48.40;;;;;;5008230;28;20249;-74
2022/04/22 13:03:58;;;;;;;1.92;1.85;;;32.70;46.90;;;;;;5008705;28;20259;-74
2022/04/22 13:06:45;;;;;;;3.80;1.98;;;32.70;46.90;;;;;;5007278;28;20187;-74
2022/04/22 13:09:12;;;;;;;2.40;2.00;;;32.70;48.60;;;;;;5011469;28;20191;-75
2022/04/22 13:11:38;;;;;;;2.33;2.13;;;32.60;47.80;;;;;;5009587;28;20191;-76
2022/04/22 13:14:04;;;;;;;1.80;1.60;;;32.20;48.20;;;;;;5009068;28;20213;-75
2022/04/22 13:16:30;;;;;;;2.22;2.13;;;31.60;49.40;;;;;;5007022;28;20193;-75
2022/04/22 13:18:57;;;;;;;2.47;2.38;;;31.60;49.50;;;;;;5008485;28;20188;-74
2022/04/22 13:21:24;;;;;;;4.45;2.45;;;31.30;49.50;;;;;;5009499;28;20740;-75
2022/04/22 13:23:52;;;;;;;2.53;2.38;;;30.90;49.40;;;;;;5009147;28;20253;-74
2022/04/22 13:26:19;;;;;;;2.78;2.60;;;30.60;50.90;;;;;;5007433;28;21585;-74
2022/04/22 13:28:45;;;;;;;4.47;2.75;;;30.50;50.60;;;;;;5008988;28;20215;-75
2022/04/22 13:31:11;;;;;;;2.47;2.38;;;30.10;52.50;;;;;;5011277;28;20665;-74
2022/04/22 13:33:38;;;;;;;2.05;1.95;;;29.80;52.40;;;;;;5012600;28;20185;-75
2022/04/22 13:36:04;;;;;;;2.33;2.22;;;29.50;52.00;;;;;;5009467;28;20227;-75
2022/04/22 13:38:32;;;;;;;2.58;2.38;;;29.20;51.80;;;;;;5010733;28;20852;-74
2022/04/22 13:41:00;;;;;;;4.03;2.17;;;28.90;52.80;;;;;;5009342;28;20188;-75
2022/04/22 13:43:30;;;;;;;2.72;2.53;;;28.70;53.20;;;;;;5003231;28;20217;-74
2022/04/22 13:54:13;;;;;;;3.75;2.78;;;;;;;;;;5009874;28;20188;-74
2022/04/22 13:56:39;;;;;;;2.45;2.45;;;;;;;;;;5008847;28;20666;-74
2022/04/22 13:59:06;;;;;;;2.42;2.25;;;28.20;53.00;;;;;;5009975;28;20208;-75
2022/04/22 14:01:31;;;;;;;2.95;2.75;;;27.90;54.50;;;;;;5010119;28;20705;-75
2022/04/22 14:03:57;;;;;;;2.28;2.17;;;27.90;54.50;;;;;;5002276;28;20235;-75
2022/04/22 14:06:23;;;;;;;2.50;2.33;;;28.00;55.00;;;;;;5003084;28;20648;-75
2022/04/22 14:08:49;;;;;;;2.38;2.28;;;28.10;53.80;;;;;;5006975;28;20224;-74
2022/04/22 14:11:16;;;;;;;3.45;2.60;;;28.30;53.70;;;;;;5005422;28;20184;-75
2022/04/22 14:13:41;;;;;;;2.63;2.35;;;28.60;54.20;;;;;;5013848;28;20609;-75